Time;durP1;ratioP1;P1;durP2;ratioP2;P2;SDS_P1;SDS_P2;PMS_P1;PMS_P2;Temp;Humidity;BMP_temperature;BMP_pressure;BME280_temperature;BME280_humidity;BME280_pressure;Samples;Min_cycle;Max_cycle;Signal;HPM_P1;HPM_P2
2022/10/26 00:01:27;;;;;;;16.48;7.15;;;;;;;19.62;100.00;101226.13;5008012;28;20065;-49
2022/10/26 00:03:54;;;;;;;15.53;6.60;;;;;;;19.65;100.00;101222.91;5014219;28;20069;-53
2022/10/26 00:06:27;;;;;;;13.30;6.30;;;;;;;19.66;100.00;101226.44;5005214;28;20080;-49
2022/10/26 00:08:54;;;;;;;12.60;6.53;;;;;;;20.09;100.00;101219.53;4998748;28;20296;-51
2022/10/26 00:11:20;;;;;;;12.23;6.43;;;;;;;20.41;100.00;101218.00;5008825;28;20284;-52
2022/10/26 00:13:46;;;;;;;11.45;6.03;;;;;;;19.38;100.00;101214.63;4997388;28;20287;-48
2022/10/26 00:16:25;;;;;;;14.02;6.15;;;;;;;20.10;100.00;101214.91;5021603;28;20029;-51
2022/10/26 00:18:51;;;;;;;15.33;6.57;;;;;;;20.35;100.00;101200.84;5000141;28;20062;-51
2022/10/26 00:21:17;;;;;;;11.80;5.53;;;;;;;20.02;100.00;101208.84;5007726;28;20273;-52
2022/10/26 00:23:44;;;;;;;11.80;5.90;;;;;;;19.65;100.00;101203.09;4998364;28;20034;-50
2022/10/26 00:26:10;;;;;;;13.48;6.40;;;;;;;20.05;100.00;101196.63;5010707;28;20034;-51
2022/10/26 00:28:36;;;;;;;10.82;6.07;;;;;;;20.20;100.00;101206.91;5010257;28;20027;-48
2022/10/26 00:31:05;;;;;;;13.57;6.17;;;;;;;20.31;100.00;101202.44;5006512;28;20029;-49
2022/10/26 00:33:31;;;;;;;10.33;5.70;;;;;;;20.27;100.00;101199.38;5003024;28;20273;-49
2022/10/26 00:35:56;;;;;;;10.03;6.30;;;;;;;20.04;100.00;101200.44;5002470;28;20299;-49
2022/10/26 00:38:22;;;;;;;13.17;5.63;;;;;;;20.20;100.00;101199.56;5006185;28;20264;-49
2022/10/26 00:40:47;;;;;;;12.60;5.95;;;;;;;20.23;100.00;101190.09;5002926;28;20268;-51
2022/10/26 00:43:19;;;;;;;12.30;6.28;;;;;;;20.25;100.00;101189.84;5010205;28;20050;-47
2022/10/26 00:45:45;;;;;;;18.87;6.70;;;;;;;20.23;100.00;101187.41;5009490;28;20038;-47
2022/10/26 00:48:23;;;;;;;9.93;5.63;;;;;;;20.38;100.00;101186.75;5002461;28;20272;-50
2022/10/26 00:50:50;;;;;;;12.70;6.50;;;;;;;20.11;100.00;101176.66;5011044;28;20277;-53
2022/10/26 00:53:16;;;;;;;13.37;6.50;;;;;;;20.09;100.00;101169.81;5001665;28;20268;-52
2022/10/26 00:55:46;;;;;;;9.57;5.93;;;;;;;21.02;100.00;101171.72;5015580;28;20276;-52
2022/10/26 00:58:12;;;;;;;13.80;6.17;;;;;;;20.17;100.00;101178.34;5004433;28;20034;-53
2022/10/26 01:00:40;;;;;;;15.47;6.93;;;;;;;20.13;100.00;101181.81;4994861;28;20272;-51
2022/10/26 01:03:07;;;;;;;16.40;5.97;;;;;;;20.42;100.00;101179.75;5001952;28;20340;-49
2022/10/26 01:05:35;;;;;;;13.80;5.80;;;;;;;20.54;100.00;101176.09;5003247;28;20323;-55
2022/10/26 01:08:01;;;;;;;15.07;5.40;;;;;;;20.39;100.00;101165.84;5005252;28;20275;-48
2022/10/26 01:10:27;;;;;;;12.68;6.00;;;;;;;20.41;100.00;101161.81;5003523;28;20268;-51
2022/10/26 01:12:56;;;;;;;15.73;6.15;;;;;;;20.57;100.00;101167.41;5006130;28;20095;-53
2022/10/26 01:15:31;;;;;;;13.67;5.93;;;;;;;20.29;100.00;101166.53;4997072;28;20042;-47
2022/10/26 01:18:07;;;;;;;12.27;6.07;;;;;;;20.59;100.00;101163.34;5003806;28;20268;-51
2022/10/26 01:20:45;;;;;;;17.27;6.32;;;;;;;20.42;100.00;101157.22;4999506;28;20280;-49
2022/10/26 01:23:51;;;;;;;16.27;6.30;;;;;;;20.49;100.00;101153.19;5012728;28;20031;-54
2022/10/26 01:26:44;;;;;;;12.70;6.73;;;;;;;20.55;100.00;101156.78;5011061;28;20272;-51
2022/10/26 01:29:47;;;;;;;13.77;6.03;;;;;;;20.87;100.00;101155.25;5006111;28;20305;-51
2022/10/26 01:32:44;;;;;;;13.33;7.17;;;;;;;20.83;100.00;101157.66;4999554;28;20277;-49
2022/10/26 01:35:14;;;;;;;20.37;8.00;;;;;;;20.78;100.00;101155.69;5009239;28;20291;-54
2022/10/26 01:37:53;;;;;;;17.13;8.23;;;;;;;20.97;100.00;101162.69;5004386;28;20264;-51
2022/10/26 01:40:22;;;;;;;14.03;7.83;;;;;;;20.65;100.00;101158.00;5002451;28;20276;-49
2022/10/26 01:42:52;;;;;;;20.93;9.23;;;;;;;20.49;100.00;101142.31;4994423;28;20292;-49
2022/10/26 01:45:18;;;;;;;21.50;9.50;;;;;;;22.92;100.00;101144.91;5007976;28;20268;-54
2022/10/26 01:47:46;;;;;;;20.00;8.60;;;;;;;20.35;100.00;101144.63;5002225;28;20271;-49
2022/10/26 01:50:12;;;;;;;27.37;9.13;;;;;;;20.23;100.00;101134.97;5007837;28;20091;-50
2022/10/26 01:52:39;;;;;;;14.27;8.77;;;;;;;20.09;100.00;101129.94;5006685;28;20264;-49
2022/10/26 01:55:42;;;;;;;15.90;8.23;;;;;;;20.21;100.00;101135.25;4999666;28;20038;-50
2022/10/26 01:58:20;;;;;;;15.63;6.90;;;;;;;20.66;100.00;101140.63;5003043;28;20265;-52
2022/10/26 02:00:58;;;;;;;15.53;7.23;;;;;;;20.04;100.00;101127.13;5014488;28;20293;-51
2022/10/26 02:03:43;;;;;;;12.10;6.70;;;;;;;20.19;100.00;101126.53;5005683;28;20281;-51
2022/10/26 02:06:21;;;;;;;13.70;6.93;;;;;;;20.55;100.00;101129.63;5004283;28;20280;-49
2022/10/26 02:09:03;;;;;;;15.70;6.77;;;;;;;20.30;100.00;101127.47;5001703;28;20297;-48
2022/10/26 02:11:37;;;;;;;16.27;7.47;;;;;;;20.26;100.00;101132.56;4997442;28;20264;-52
2022/10/26 02:14:14;;;;;;;16.67;6.60;;;;;;;19.78;100.00;101137.63;4995782;28;20340;-49
2022/10/26 02:17:01;;;;;;;13.87;6.57;;;;;;;19.84;100.00;101123.06;5003899;28;20267;-49
2022/10/26 02:19:40;;;;;;;14.03;7.10;;;;;;;20.20;100.00;101118.09;5001792;28;20293;-47
2022/10/26 02:22:23;;;;;;;20.93;10.83;;;;;;;20.28;100.00;101116.00;5012648;28;20288;-50
2022/10/26 02:24:51;;;;;;;30.47;13.93;;;;;;;20.54;100.00;101116.31;5008161;28;20506;-51
2022/10/26 02:27:26;;;;;;;13.87;6.53;;;;;;;20.10;100.00;101107.16;4998858;28;20272;-49
2022/10/26 02:29:54;;;;;;;14.43;6.73;;;;;;;20.20;100.00;101101.81;5013362;28;20318;-49
2022/10/26 02:32:22;;;;;;;21.10;7.37;;;;;;;20.20;100.00;101104.53;5006252;28;20252;-48
2022/10/26 02:34:50;;;;;;;16.23;6.17;;;;;;;20.37;100.00;101106.34;5003628;28;20302;-48
2022/10/26 02:37:19;;;;;;;13.53;5.60;;;;;;;20.33;100.00;101099.78;5009933;28;20279;-49
2022/10/26 02:39:48;;;;;;;18.03;6.37;;;;;;;20.23;100.00;101094.25;5005446;28;20272;-50
2022/10/26 02:42:14;;;;;;;9.97;6.20;;;;;;;19.82;100.00;101100.78;5010230;28;20277;-50
2022/10/26 02:44:45;;;;;;;10.15;5.18;;;;;;;19.81;100.00;101101.03;5007635;28;20299;-52
2022/10/26 02:47:11;;;;;;;15.20;6.70;;;;;;;20.01;100.00;101104.03;5004245;28;20082;-49
2022/10/26 02:49:37;;;;;;;11.67;5.77;;;;;;;20.31;100.00;101102.75;5005687;28;20260;-47
2022/10/26 02:52:40;;;;;;;10.30;6.03;;;;;;;20.31;100.00;101101.94;5012376;28;20352;-51
2022/10/26 02:55:26;;;;;;;16.33;6.90;;;;;;;20.41;100.00;101102.03;5003674;28;20351;-52
2022/10/26 02:58:01;;;;;;;10.93;6.03;;;;;;;19.70;100.00;101089.22;5006241;28;20276;-51
2022/10/26 03:00:27;;;;;;;16.17;7.10;;;;;;;19.80;100.00;101092.06;5000629;28;20304;-50
2022/10/26 03:02:57;;;;;;;13.67;7.07;;;;;;;19.76;100.00;101096.34;5014192;28;20305;-54
2022/10/26 03:05:27;;;;;;;16.50;6.37;;;;;;;19.75;100.00;101092.84;5003748;28;20277;-52
2022/10/26 03:07:53;;;;;;;14.87;6.87;;;;;;;20.00;100.00;101085.28;5016563;28;20272;-49
2022/10/26 03:10:19;;;;;;;18.60;6.70;;;;;;;20.23;100.00;101091.53;5005948;28;20312;-48
2022/10/26 03:12:44;;;;;;;11.80;6.32;;;;;;;20.26;100.00;101088.28;5009135;28;20291;-50
2022/10/26 03:15:11;;;;;;;14.90;6.47;;;;;;;20.05;100.00;101082.63;5002784;28;20048;-49
2022/10/26 03:17:36;;;;;;;17.33;5.60;;;;;;;19.92;100.00;101083.81;5012717;28;20065;-47
2022/10/26 03:20:02;;;;;;;12.95;6.57;;;;;;;19.91;100.00;101083.03;5002783;28;20031;-46
2022/10/26 03:22:28;;;;;;;13.15;5.72;;;;;;;19.84;100.00;101076.94;5009262;28;20038;-53
2022/10/26 03:24:53;;;;;;;10.90;5.60;;;;;;;19.68;100.00;101084.03;5010869;28;20695;-47
2022/10/26 03:27:19;;;;;;;12.05;6.07;;;;;;;19.71;100.00;101080.00;5003116;28;20038;-50
2022/10/26 03:29:44;;;;;;;11.02;6.20;;;;;;;19.56;100.00;101070.59;5012004;28;20059;-49
2022/10/26 03:32:10;;;;;;;10.67;5.87;;;;;;;19.86;100.00;101063.94;5004095;28;20031;-51
2022/10/26 03:34:35;;;;;;;15.63;6.38;;;;;;;20.10;100.00;101077.28;5004344;28;20063;-48
2022/10/26 03:37:01;;;;;;;9.45;5.50;;;;;;;20.39;100.00;101074.31;4998847;28;20035;-51
2022/10/26 03:39:26;;;;;;;15.10;6.15;;;;;;;20.53;100.00;101071.19;5005738;28;20038;-49
2022/10/26 03:41:54;;;;;;;17.83;6.53;;;;;;;20.65;100.00;101079.19;5007575;28;20098;-49
2022/10/26 03:44:20;;;;;;;13.67;5.93;;;;;;;20.32;100.00;101076.44;5007545;28;20098;-52
2022/10/26 03:46:46;;;;;;;14.88;6.68;;;;;;;20.50;100.00;101077.97;5007366;28;20276;-51
2022/10/26 03:49:11;;;;;;;18.00;6.30;;;;;;;20.23;100.00;101073.34;5014505;28;20042;-48
2022/10/26 03:51:37;;;;;;;12.05;6.28;;;;;;;20.41;100.00;101072.16;5005706;28;20043;-50
2022/10/26 03:54:03;;;;;;;14.70;6.40;;;;;;;20.61;100.00;101073.44;5007848;28;20051;-51
2022/10/26 03:56:28;;;;;;;11.15;5.85;;;;;;;20.75;100.00;101065.69;5009918;28;20050;-51
2022/10/26 03:58:54;;;;;;;11.93;5.97;;;;;;;21.38;100.00;101077.88;5012813;28;20053;-51
2022/10/26 04:01:20;;;;;;;12.55;6.10;;;;;;;20.69;100.00;101067.53;5004044;28;20063;-47
2022/10/26 04:03:45;;;;;;;11.57;5.50;;;;;;;20.61;100.00;101073.44;5009829;28;20081;-47
2022/10/26 04:06:11;;;;;;;15.73;5.63;;;;;;;20.68;100.00;101062.38;5012911;28;20042;-49
2022/10/26 04:08:36;;;;;;;15.80;6.32;;;;;;;20.71;100.00;101065.38;5000524;28;20038;-51
2022/10/26 04:11:02;;;;;;;22.73;6.38;;;;;;;20.78;100.00;101068.72;5011667;28;20063;-50
2022/10/26 04:13:27;;;;;;;12.97;6.07;;;;;;;20.62;100.00;101069.66;5004557;28;20027;-53
2022/10/26 04:15:53;;;;;;;14.50;5.47;;;;;;;20.78;100.00;101074.16;5016834;28;20271;-51
2022/10/26 04:18:18;;;;;;;11.43;5.13;;;;;;;20.16;100.00;101067.28;5010165;28;20062;-47
2022/10/26 04:20:44;;;;;;;16.88;6.30;;;;;;;20.00;100.00;101061.69;5003198;28;20030;-46
2022/10/26 04:23:14;;;;;;;16.75;6.55;;;;;;;20.69;100.00;101064.81;5005866;28;20063;-48
2022/10/26 04:25:41;;;;;;;14.23;6.10;;;;;;;20.86;100.00;101063.91;5001269;28;20030;-54
2022/10/26 04:28:08;;;;;;;14.50;5.93;;;;;;;20.49;100.00;101060.03;5012844;28;20296;-49
2022/10/26 04:30:34;;;;;;;9.73;5.90;;;;;;;20.62;100.00;101058.78;5010792;28;20284;-49
2022/10/26 04:32:59;;;;;;;16.48;5.47;;;;;;;20.54;100.00;101061.97;5001249;28;20011;-48
2022/10/26 04:35:25;;;;;;;20.80;6.30;;;;;;;20.29;100.00;101053.31;5002486;28;20038;-51
2022/10/26 04:37:59;;;;;;;14.48;5.60;;;;;;;20.49;100.00;101055.41;5008799;28;20264;-49
2022/10/26 04:40:26;;;;;;;15.90;6.63;;;;;;;20.48;100.00;101053.75;5009224;28;20044;-50
2022/10/26 04:42:51;;;;;;;;;;;;;;;20.06;100.00;101054.41;5005563;28;20281;-54
2022/10/26 04:45:17;;;;;;;12.53;6.10;;;;;;;19.67;100.00;101047.13;5004504;28;19918;-50
2022/10/26 04:47:42;;;;;;;18.17;6.68;;;;;;;19.48;100.00;101046.63;5000174;28;20039;-51
2022/10/26 04:50:10;;;;;;;16.00;7.50;;;;;;;20.06;100.00;101046.25;5001521;28;20069;-50
2022/10/26 04:52:36;;;;;;;12.87;5.57;;;;;;;19.98;100.00;101049.44;4953515;28;20566;-49
2022/10/26 04:55:06;;;;;;;11.60;5.97;;;;;;;20.48;100.00;101037.47;4951329;28;20279;-50
2022/10/26 04:57:33;;;;;;;12.07;5.87;;;;;;;20.47;100.00;101040.44;4949158;28;20039;-50
2022/10/26 04:59:59;;;;;;;14.50;5.70;;;;;;;20.16;100.00;101045.56;4948789;28;20258;-49
2022/10/26 05:02:28;;;;;;;14.00;6.00;;;;;;;20.88;100.00;101043.56;4950795;29;20381;-50
2022/10/26 05:04:54;;;;;;;14.90;6.57;;;;;;;20.42;100.00;101043.94;4948635;28;20036;-49
2022/10/26 05:07:19;;;;;;;15.43;6.07;;;;;;;20.37;100.00;101046.59;4945934;28;20317;-51
2022/10/26 05:09:45;;;;;;;8.63;5.37;;;;;;;20.04;100.00;101045.69;4953124;28;20266;-50
2022/10/26 05:12:11;;;;;;;14.27;5.68;;;;;;;19.99;100.00;101048.34;4950937;28;20275;-54
2022/10/26 05:14:37;;;;;;;12.93;5.63;;;;;;;19.93;100.00;101047.47;4950945;28;20062;-52
2022/10/26 05:17:03;;;;;;;10.20;5.37;;;;;;;19.62;100.00;101050.63;4950738;28;20282;-51
2022/10/26 05:19:28;;;;;;;12.77;5.80;;;;;;;19.74;100.00;101052.38;4953227;28;20137;-50
2022/10/26 05:21:54;;;;;;;14.75;5.05;;;;;;;20.21;100.00;101053.78;4950821;28;20032;-51
2022/10/26 05:24:19;;;;;;;11.50;5.50;;;;;;;20.28;100.00;101050.84;4950720;29;20043;-53
2022/10/26 05:26:45;;;;;;;11.30;6.35;;;;;;;20.42;100.00;101049.38;4950589;29;20039;-51
2022/10/26 05:29:10;;;;;;;11.45;5.10;;;;;;;20.65;100.00;101063.69;4950424;28;20095;-51
2022/10/26 05:31:36;;;;;;;13.57;5.10;;;;;;;20.62;100.00;101059.59;4950554;28;20046;-52
2022/10/26 05:34:02;;;;;;;11.30;5.75;;;;;;;20.17;100.00;101058.06;4950778;28;20296;-51
2022/10/26 05:36:28;;;;;;;10.98;5.50;;;;;;;20.12;100.00;101064.28;4950744;29;20040;-52
2022/10/26 05:38:57;;;;;;;15.48;6.10;;;;;;;20.11;100.00;101075.38;4949283;28;20039;-52
2022/10/26 05:41:22;;;;;;;13.87;5.73;;;;;;;19.85;100.00;101073.16;4951671;29;20062;-53
2022/10/26 05:43:48;;;;;;;14.97;6.00;;;;;;;19.62;100.00;101080.47;4947525;29;20274;-50
2022/10/26 05:46:13;;;;;;;13.05;6.95;;;;;;;19.99;100.00;101083.66;4949292;28;20270;-50
2022/10/26 05:48:39;;;;;;;14.73;5.50;;;;;;;19.65;100.00;101083.75;4948544;29;20063;-51
2022/10/26 05:51:04;;;;;;;9.52;5.40;;;;;;;20.22;100.00;101076.31;4976080;28;20039;-54
2022/10/26 05:53:30;;;;;;;11.18;5.68;;;;;;;20.01;100.00;101086.94;5006513;28;20046;-53
2022/10/26 05:55:56;;;;;;;14.63;5.87;;;;;;;20.35;100.00;101081.34;5008480;28;20057;-52
2022/10/26 05:58:22;;;;;;;12.32;5.55;;;;;;;20.19;100.00;101073.03;5012993;28;20268;-54
2022/10/26 06:01:16;;;;;;;11.85;6.10;;;;;;;19.95;100.00;101077.88;5005207;28;20131;-50
2022/10/26 06:03:57;;;;;;;11.97;5.23;;;;;;;19.83;100.00;101086.13;5017709;28;20117;-54
2022/10/26 06:06:23;;;;;;;12.63;5.93;;;;;;;19.85;100.00;101078.59;5004226;28;20272;-53
2022/10/26 06:08:49;;;;;;;17.30;5.70;;;;;;;19.59;100.00;101083.66;5007008;28;20310;-51
2022/10/26 06:11:15;;;;;;;17.38;6.13;;;;;;;19.46;100.00;101081.31;5013167;28;20054;-51
2022/10/26 06:13:42;;;;;;;12.90;6.30;;;;;;;19.66;100.00;101078.03;5005803;28;20038;-51
2022/10/26 06:16:36;;;;;;;10.88;5.30;;;;;;;19.68;100.00;101089.47;5012202;28;20254;-51
2022/10/26 06:19:29;;;;;;;12.97;5.90;;;;;;;19.25;100.00;101086.44;5006781;28;20062;-52
2022/10/26 06:22:00;;;;;;;18.83;6.83;;;;;;;19.31;100.00;101093.56;4996684;28;20334;-50
2022/10/26 06:24:50;;;;;;;14.13;5.90;;;;;;;19.78;100.00;101080.66;5010554;28;20260;-51
2022/10/26 06:28:03;;;;;;;13.60;6.17;;;;;;;19.90;100.00;101084.06;5003213;28;20276;-54
2022/10/26 06:30:29;;;;;;;13.47;5.10;;;;;;;20.17;100.00;101091.47;4979734;28;20360;-53
2022/10/26 06:32:55;;;;;;;13.70;5.87;;;;;;;20.32;100.00;101093.53;5008364;28;20326;-54
2022/10/26 06:35:35;;;;;;;18.85;6.18;;;;;;;20.29;100.00;101093.22;5008327;28;20385;-53
2022/10/26 06:38:06;;;;;;;13.63;6.27;;;;;;;19.97;100.00;101089.34;5021768;28;20041;-52
2022/10/26 06:40:36;;;;;;;12.10;5.40;;;;;;;19.94;100.00;101091.72;5009829;28;20332;-51
2022/10/26 06:43:02;;;;;;;11.17;5.40;;;;;;;20.11;100.00;101091.66;5006635;28;20280;-48
2022/10/26 06:45:28;;;;;;;13.35;5.65;;;;;;;20.22;100.00;101090.72;5010412;28;20360;-51
2022/10/26 06:48:01;;;;;;;11.55;5.32;;;;;;;20.35;100.00;101093.00;5004300;28;20042;-50
2022/10/26 06:50:37;;;;;;;11.20;5.47;;;;;;;20.19;100.00;101088.50;5005001;28;20030;-49
2022/10/26 06:53:34;;;;;;;15.20;5.70;;;;;;;20.24;100.00;101085.00;5008135;28;20290;-54
2022/10/26 06:56:00;;;;;;;12.20;5.90;;;;;;;20.10;100.00;101082.72;5012805;28;20265;-51
2022/10/26 06:58:35;;;;;;;15.32;5.93;;;;;;;20.47;100.00;101075.75;5011741;28;20272;-52
2022/10/26 07:01:00;;;;;;;11.40;5.77;;;;;;;20.46;100.00;101085.00;5006871;28;20035;-51
2022/10/26 07:03:26;;;;;;;14.63;6.38;;;;;;;20.23;100.00;101086.94;5014257;28;20308;-53
2022/10/26 07:05:51;;;;;;;10.50;5.10;;;;;;;20.58;100.00;101080.22;5009081;28;20035;-49
2022/10/26 07:08:17;;;;;;;17.15;5.78;;;;;;;20.17;100.00;101091.47;5004464;28;20026;-49
2022/10/26 07:10:45;;;;;;;18.58;5.60;;;;;;;20.24;100.00;101093.16;5012253;28;20061;-51
2022/10/26 07:13:11;;;;;;;14.37;4.97;;;;;;;20.32;100.00;101090.00;5003309;28;20034;-52
2022/10/26 07:15:38;;;;;;;12.97;5.20;;;;;;;21.25;100.00;101082.69;5007529;28;20284;-51
2022/10/26 07:18:06;;;;;;;13.60;5.60;;;;;;;21.09;100.00;101086.38;4996452;28;20261;-52
2022/10/26 07:20:36;;;;;;;10.63;4.50;;;;;;;20.86;100.00;101096.53;5004034;28;20264;-53
2022/10/26 07:23:02;;;;;;;7.53;4.30;;;;;;;20.98;100.00;101099.88;5004631;28;20277;-51
2022/10/26 07:25:27;;;;;;;11.68;4.90;;;;;;;21.24;100.00;101110.97;5005219;28;20287;-48
2022/10/26 07:28:00;;;;;;;12.35;5.65;;;;;;;20.80;100.00;101103.00;5009792;28;20039;-51
2022/10/26 07:30:27;;;;;;;13.30;5.50;;;;;;;20.46;100.00;101104.00;4997604;28;20039;-50
2022/10/26 07:33:09;;;;;;;10.60;5.23;;;;;;;20.49;100.00;101107.00;5008408;28;20267;-49
2022/10/26 07:35:35;;;;;;;10.50;4.53;;;;;;;20.73;100.00;101108.63;5003172;28;20276;-47
2022/10/26 07:38:01;;;;;;;12.20;5.13;;;;;;;20.75;100.00;101118.13;5008959;28;20264;-49
2022/10/26 07:40:27;;;;;;;10.18;4.68;;;;;;;20.70;100.00;101114.56;5010679;28;20033;-52
2022/10/26 07:42:56;;;;;;;9.98;4.85;;;;;;;20.92;100.00;101114.50;5000580;28;20034;-54
2022/10/26 07:45:21;;;;;;;12.83;5.07;;;;;;;20.87;100.00;101118.00;5014803;28;20035;-50
2022/10/26 07:47:48;;;;;;;12.02;5.40;;;;;;;21.23;100.00;101122.94;5003340;28;20301;-49
2022/10/26 07:50:14;;;;;;;11.87;5.50;;;;;;;21.30;100.00;101126.25;4997336;28;20062;-50
2022/10/26 07:52:40;;;;;;;14.98;6.43;;;;;;;21.30;100.00;101125.41;5001512;28;20276;-51
2022/10/26 07:55:07;;;;;;;14.32;5.75;;;;;;;21.58;100.00;101126.97;5004865;28;20043;-52
2022/10/26 07:57:33;;;;;;;14.47;5.90;;;;;;;21.77;100.00;101130.09;5011405;28;20028;-50
2022/10/26 07:59:59;;;;;;;9.93;5.18;;;;;;;21.85;100.00;101144.31;5004855;28;20290;-50
2022/10/26 08:02:24;;;;;;;11.13;5.20;;;;;;;21.24;100.00;101151.78;5010165;28;20047;-49
2022/10/26 08:04:50;;;;;;;13.80;4.85;;;;;;;21.65;100.00;101153.16;5007414;28;20043;-53
2022/10/26 08:07:15;;;;;;;10.15;4.50;;;;;;;21.84;100.00;101154.34;5007821;28;20043;-51
2022/10/26 08:09:41;;;;;;;9.38;3.72;;;;;;;22.12;100.00;101149.59;5004699;28;20084;-51
2022/10/26 08:12:06;;;;;;;15.55;4.55;;;;;;;21.91;100.00;101157.69;5007273;28;20069;-55
2022/10/26 08:14:32;;;;;;;10.55;4.25;;;;;;;22.74;100.00;101154.44;5003522;28;20035;-50
2022/10/26 08:16:57;;;;;;;9.77;4.00;;;;;;;23.15;100.00;101153.66;5010632;28;20038;-49
2022/10/26 08:19:23;;;;;;;7.78;4.25;;;;;;;23.75;100.00;101161.22;5010350;28;20038;-51
2022/10/26 08:21:48;;;;;;;8.63;3.55;;;;;;;24.53;100.00;101169.16;5001191;28;20058;-51
2022/10/26 08:24:14;;;;;;;6.30;3.22;;;;;;;24.07;100.00;101168.28;5009156;28;20038;-53
2022/10/26 08:26:40;;;;;;;8.13;3.60;;;;;;;23.66;100.00;101161.00;5002230;28;20042;-50
2022/10/26 08:29:05;;;;;;;8.15;2.83;;;;;;;23.51;100.00;101171.94;4999220;28;20066;-50
2022/10/26 08:31:31;;;;;;;8.68;4.13;;;;;;;23.51;100.00;101170.03;5013702;28;20063;-50
2022/10/26 08:33:58;;;;;;;;;;;;;;;24.01;100.00;101166.66;5001366;28;20039;-54
2022/10/26 08:36:25;;;;;;;5.13;2.40;;;;;;;23.61;100.00;101171.91;5001405;28;19921;-55
2022/10/26 08:38:52;;;;;;;11.03;2.67;;;;;;;23.14;100.00;101173.84;5005212;28;20029;-51
2022/10/26 08:41:22;;;;;;;8.40;3.60;;;;;;;22.98;100.00;101181.22;4989458;28;20250;-49
2022/10/26 08:43:55;;;;;;;5.73;3.03;;;;;;;24.27;100.00;101194.69;5012155;28;20032;-49
2022/10/26 08:46:27;;;;;;;9.93;3.27;;;;;;;24.40;100.00;101201.47;5008521;28;20031;-52
2022/10/26 08:49:03;;;;;;;10.07;3.27;;;;;;;25.22;100.00;101204.84;5004114;28;20082;-49
2022/10/26 08:51:34;;;;;;;7.95;3.05;;;;;;;24.11;100.00;101195.88;5011207;28;20055;-48
2022/10/26 08:54:08;;;;;;;7.53;2.53;;;;;;;23.75;100.00;101194.84;4999346;28;20040;-52
2022/10/26 08:56:39;;;;;;;10.80;3.30;;;;;;;23.44;100.00;101194.88;4998836;28;20044;-52
2022/10/26 08:59:21;;;;;;;7.87;3.50;;;;;;;25.23;100.00;101192.78;5016336;28;20032;-50
2022/10/26 09:01:47;;;;;;;9.90;2.87;;;;;;;25.63;100.00;101188.06;5002681;28;20031;-51
2022/10/26 09:04:13;;;;;;;;;;;;;;;25.22;100.00;101190.31;5007531;28;20058;-51
2022/10/26 09:07:12;;;;;;;13.55;3.65;;;;;;;25.39;100.00;101196.19;5004725;28;19914;-49
2022/10/26 09:10:09;;;;;;;8.25;3.30;;;;;;;25.04;100.00;101196.19;4992290;28;20042;-49
2022/10/26 09:12:58;;;;;;;9.32;3.38;;;;;;;24.46;100.00;101181.25;5010791;28;20035;-49
2022/10/26 09:15:58;;;;;;;6.50;2.83;;;;;;;24.12;100.00;101179.19;5001767;28;20104;-53
2022/10/26 09:18:48;;;;;;;7.63;3.30;;;;;;;24.59;100.00;101181.69;5001284;28;20103;-50
2022/10/26 09:21:23;;;;;;;9.73;2.80;;;;;;;26.39;99.97;101189.41;5015734;28;20050;-49
2022/10/26 09:23:58;;;;;;;11.63;3.10;;;;;;;27.10;93.33;101190.59;5006669;28;20066;-49
2022/10/26 09:26:28;;;;;;;5.33;3.20;;;;;;;27.38;91.24;101196.19;5010186;28;20058;-49
2022/10/26 09:28:56;;;;;;;18.13;3.70;;;;;;;30.22;82.93;101204.59;4999719;28;20097;-52
2022/10/26 09:31:23;;;;;;;8.33;2.90;;;;;;;28.76;82.34;101207.50;5007897;28;20122;-49
2022/10/26 09:33:51;;;;;;;8.67;2.90;;;;;;;28.39;82.81;101213.00;5009231;28;20060;-52
2022/10/26 09:36:21;;;;;;;5.63;2.83;;;;;;;28.22;83.15;101229.28;5006275;28;20062;-52
2022/10/26 09:39:12;;;;;;;17.13;2.70;;;;;;;28.07;83.90;101242.19;5009309;28;20032;-50
2022/10/26 09:41:52;;;;;;;7.80;3.17;;;;;;;28.34;83.44;101240.56;5005739;28;20070;-51
2022/10/26 09:44:27;;;;;;;11.87;3.30;;;;;;;28.49;84.42;101239.47;4999537;28;20049;-52
2022/10/26 09:46:59;;;;;;;9.23;2.90;;;;;;;27.58;87.54;101248.03;5011440;28;20070;-48
2022/10/26 09:49:40;;;;;;;10.63;2.60;;;;;;;27.89;88.16;101255.72;5013363;28;20039;-51
2022/10/26 09:52:06;;;;;;;9.40;3.00;;;;;;;28.97;82.70;101253.84;5012972;28;20057;-52
2022/10/26 09:54:31;;;;;;;8.83;2.53;;;;;;;28.82;82.61;101277.00;5008849;28;20049;-52
2022/10/26 09:57:01;;;;;;;14.00;2.80;;;;;;;28.63;83.49;101261.44;5003908;28;20091;-52
2022/10/26 09:59:29;;;;;;;7.40;2.70;;;;;;;28.91;81.95;101272.41;5004588;28;20041;-48
2022/10/26 10:01:55;;;;;;;8.53;2.47;;;;;;;29.18;80.67;101273.44;5000396;28;20034;-52
2022/10/26 10:04:22;;;;;;;6.85;2.38;;;;;;;28.66;82.60;101266.31;5021787;28;20151;-52
2022/10/26 10:07:10;;;;;;;11.83;2.70;;;;;;;28.22;83.79;101278.78;5006943;28;20073;-51
2022/10/26 10:09:35;;;;;;;7.33;2.60;;;;;;;28.46;82.00;101273.88;5004209;28;20031;-51
2022/10/26 10:12:02;;;;;;;;;;;;;;;29.55;80.37;101273.38;5023218;28;20030;-51
2022/10/26 10:14:36;;;;;;;9.10;2.50;;;;;;;30.17;76.43;101282.81;5007423;28;19971;-52
2022/10/26 10:17:09;;;;;;;8.55;2.90;;;;;;;30.70;74.28;101280.19;5010609;28;20040;-53
2022/10/26 10:19:37;;;;;;;9.38;2.70;;;;;;;31.34;70.07;101295.34;5012616;28;20033;-53
2022/10/26 10:22:17;;;;;;;6.05;2.30;;;;;;;32.37;67.07;101307.59;4998575;28;20037;-50
2022/10/26 10:24:55;;;;;;;5.75;1.98;;;;;;;32.00;68.78;101307.25;5009439;28;20036;-53
2022/10/26 10:27:22;;;;;;;10.27;2.42;;;;;;;31.96;68.10;101311.81;5002288;28;20056;-49
2022/10/26 10:29:54;;;;;;;10.93;2.08;;;;;;;31.18;69.49;101314.34;5012902;28;20033;-54
2022/10/26 10:32:29;;;;;;;5.57;2.03;;;;;;;31.13;69.60;101315.31;5003116;28;20038;-54
2022/10/26 10:34:57;;;;;;;7.38;2.50;;;;;;;32.18;67.98;101325.41;5007660;28;20084;-53
2022/10/26 10:37:29;;;;;;;8.07;2.30;;;;;;;31.68;66.35;101356.44;4998365;28;20048;-53
2022/10/26 10:40:00;;;;;;;7.57;2.83;;;;;;;30.76;70.81;101337.69;5009046;28;20031;-54
2022/10/26 10:42:31;;;;;;;5.85;2.10;;;;;;;29.46;75.05;101337.53;5007746;28;20039;-56
2022/10/26 10:44:59;;;;;;;8.50;2.28;;;;;;;31.48;70.38;101340.19;5009633;28;20030;-53
2022/10/26 10:47:31;;;;;;;6.75;2.20;;;;;;;31.66;68.75;101347.66;5017616;28;20037;-54
2022/10/26 10:50:04;;;;;;;6.63;2.13;;;;;;;31.69;66.74;101360.81;5002409;28;20026;-52
2022/10/26 10:52:32;;;;;;;8.50;2.10;;;;;;;32.27;65.69;101363.28;5006413;28;20073;-51
2022/10/26 10:55:16;;;;;;;8.82;2.70;;;;;;;32.31;65.24;101378.88;5006372;28;20042;-52
2022/10/26 10:58:07;;;;;;;6.25;2.40;;;;;;;30.98;70.11;101369.09;5009922;28;20027;-51
2022/10/26 11:00:36;;;;;;;4.93;2.08;;;;;;;32.30;66.58;101363.44;5010977;28;20034;-52
2022/10/26 11:03:17;;;;;;;6.30;2.17;;;;;;;30.65;69.20;101363.97;4999312;28;20027;-49
2022/10/26 11:06:00;;;;;;;12.23;2.28;;;;;;;33.52;64.33;101376.88;5014303;28;20042;-55
2022/10/26 11:08:31;;;;;;;7.20;1.75;;;;;;;33.13;65.40;101392.81;5009154;28;20041;-51
2022/10/26 11:11:05;;;;;;;10.40;2.72;;;;;;;29.78;74.28;101384.44;5011983;28;20035;-49
2022/10/26 11:13:48;;;;;;;10.63;2.80;;;;;;;28.93;79.60;101384.94;5006694;28;20031;-47
2022/10/26 11:16:19;;;;;;;8.50;2.70;;;;;;;30.53;75.90;101383.06;5004451;28;20031;-50
2022/10/26 11:18:54;;;;;;;7.37;2.60;;;;;;;27.93;86.40;101387.03;5007708;28;20033;-52
2022/10/26 11:21:27;;;;;;;12.67;2.97;;;;;;;27.90;87.53;101386.50;4996370;28;20093;-51
2022/10/26 11:24:12;;;;;;;6.67;2.43;;;;;;;27.51;91.36;101382.19;5008971;28;20034;-52
2022/10/26 11:26:47;;;;;;;8.93;2.83;;;;;;;26.70;97.16;101391.97;5012289;28;20049;-49
2022/10/26 11:29:22;;;;;;;9.13;3.20;;;;;;;26.04;100.00;101381.34;5009439;28;20033;-49
2022/10/26 11:32:06;;;;;;;17.53;3.83;;;;;;;26.44;100.00;101397.72;5004072;28;20030;-46